Time;durP1;ratioP1;P1;durP2;ratioP2;P2;SDS_P1;SDS_P2;PMS_P1;PMS_P2;Temp;Humidity;BMP_temperature;BMP_pressure;BME280_temperature;BME280_humidity;BME280_pressure;Samples;Min_cycle;Max_cycle;Signal;HPM_P1;HPM_P2
2021/10/11 00:00:01;;;;;;;10.13;5.80;;;;;;;11.28;73.45;101681.91;6392381;27;20528;-71
2021/10/11 00:03:17;;;;;;;6.25;5.80;;;;;;;11.22;73.31;101666.28;6391334;27;20235;-71
2021/10/11 00:06:22;;;;;;;7.03;6.32;;;;;;;11.15;74.45;101670.88;6392332;27;20244;-71
2021/10/11 00:09:26;;;;;;;7.00;5.53;;;;;;;11.14;75.38;101666.50;6391033;27;20206;-72
2021/10/11 00:12:31;;;;;;;7.13;6.43;;;;;;;11.16;74.41;101666.28;6392531;27;20244;-71
2021/10/11 00:15:35;;;;;;;13.15;6.75;;;;;;;11.24;73.81;101658.78;6391971;27;20188;-71
2021/10/11 00:18:39;;;;;;;6.80;5.55;;;;;;;11.16;74.19;101645.28;6392061;27;20186;-71
2021/10/11 00:21:46;;;;;;;10.60;6.53;;;;;;;11.04;73.94;101646.84;6392286;27;20182;-71
2021/10/11 00:24:50;;;;;;;8.10;6.40;;;;;;;11.10;74.10;101640.59;6391102;27;20261;-71
2021/10/11 00:27:54;;;;;;;7.28;6.57;;;;;;;11.10;74.33;101629.69;6390681;27;20466;-71
2021/10/11 00:30:58;;;;;;;7.07;6.45;;;;;;;11.12;74.20;101627.56;6390651;27;20444;-71
2021/10/11 00:34:02;;;;;;;8.05;7.00;;;;;;;11.04;75.20;101635.13;6391611;27;20182;-72
2021/10/11 00:37:08;;;;;;;11.00;6.95;;;;;;;10.98;74.94;101620.38;6391384;27;20197;-73
2021/10/11 00:40:12;;;;;;;8.10;6.72;;;;;;;11.10;74.80;101617.91;6390467;27;20493;-73
2021/10/11 00:43:16;;;;;;;8.15;6.97;;;;;;;11.07;74.71;101608.22;6391540;27;20182;-73
2021/10/11 00:46:20;;;;;;;9.40;7.53;;;;;;;11.04;74.73;101596.88;6391695;27;20213;-73
2021/10/11 00:49:25;;;;;;;8.48;7.35;;;;;;;11.01;75.00;101592.66;6390914;27;20217;-73
2021/10/11 00:52:30;;;;;;;8.82;6.72;;;;;;;10.85;75.68;101592.97;6391199;27;20181;-72
2021/10/11 00:55:35;;;;;;;7.22;6.53;;;;;;;10.84;75.98;101585.81;6391438;27;20181;-71
2021/10/11 00:58:39;;;;;;;8.30;7.28;;;;;;;10.75;75.92;101576.13;6390025;27;20601;-71
2021/10/11 01:01:43;;;;;;;8.07;7.18;;;;;;;10.76;76.08;101571.50;6391481;27;20244;-72
2021/10/11 01:04:47;;;;;;;12.20;7.50;;;;;;;10.72;76.31;101560.13;6390671;27;20244;-71
2021/10/11 01:07:53;;;;;;;11.15;7.13;;;;;;;10.66;76.49;101572.69;6391055;27;20279;-71
2021/10/11 01:10:57;;;;;;;9.68;7.22;;;;;;;10.74;77.21;101559.94;6390323;27;20196;-71
2021/10/11 01:14:02;;;;;;;10.88;7.55;;;;;;;10.78;76.34;101559.34;6390949;27;20262;-71
2021/10/11 01:17:07;;;;;;;8.63;6.93;;;;;;;10.73;76.74;101561.00;6390693;27;20181;-71
2021/10/11 01:20:13;;;;;;;10.88;8.07;;;;;;;10.81;76.28;101550.72;6390847;27;20223;-71
2021/10/11 01:23:17;;;;;;;11.70;7.50;;;;;;;10.84;76.44;101547.59;6390240;27;20250;-71
2021/10/11 01:26:21;;;;;;;9.90;7.70;;;;;;;10.70;76.39;101540.41;6389760;27;20213;-72
2021/10/11 01:29:25;;;;;;;10.73;8.25;;;;;;;10.76;76.18;101539.56;6390204;27;20205;-72
2021/10/11 01:32:30;;;;;;;10.10;7.68;;;;;;;10.80;75.84;101519.03;6389209;27;20213;-70
2021/10/11 01:35:35;;;;;;;9.70;8.13;;;;;;;10.90;75.84;101524.13;6390173;27;20230;-71
2021/10/11 01:38:39;;;;;;;11.00;8.10;;;;;;;10.95;74.94;101514.28;6390326;27;20201;-71
2021/10/11 01:41:43;;;;;;;9.40;6.97;;;;;;;10.94;75.37;101509.03;6390474;27;20256;-71
2021/10/11 01:44:48;;;;;;;11.23;8.52;;;;;;;10.74;75.88;101503.47;6389036;27;20341;-72
2021/10/11 01:47:51;;;;;;;9.13;7.90;;;;;;;10.63;76.25;101507.59;6389778;27;20248;-71
2021/10/11 01:50:57;;;;;;;9.40;7.90;;;;;;;10.80;76.45;101497.19;6388788;27;20189;-71
2021/10/11 01:54:01;;;;;;;10.98;7.90;;;;;;;10.79;75.56;101495.50;6388604;27;20482;-71
2021/10/11 01:57:05;;;;;;;16.02;7.63;;;;;;;10.83;76.02;101479.56;6388658;27;20453;-72
2021/10/11 02:00:11;;;;;;;9.73;7.65;;;;;;;10.79;75.50;101461.91;6389639;27;20192;-72
2021/10/11 02:03:17;;;;;;;9.48;7.65;;;;;;;10.94;74.72;101460.72;6387646;27;20457;-71
2021/10/11 02:06:23;;;;;;;16.05;8.23;;;;;;;10.94;74.54;101455.25;6388938;27;20186;-71
2021/10/11 02:09:27;;;;;;;10.85;8.05;;;;;;;10.94;74.54;101449.78;6388240;27;20409;-71
2021/10/11 02:12:31;;;;;;;9.35;7.78;;;;;;;10.84;75.15;101443.88;6389288;27;20217;-71
2021/10/11 02:15:36;;;;;;;13.13;8.10;;;;;;;10.88;74.67;101434.25;6389204;27;20185;-72
2021/10/11 02:18:40;;;;;;;10.68;7.82;;;;;;;10.99;74.87;101438.28;6388038;27;20424;-71
2021/10/11 02:21:46;;;;;;;13.98;7.90;;;;;;;10.98;75.70;101423.78;6387975;27;20489;-71
2021/10/11 02:24:50;;;;;;;9.77;7.80;;;;;;;10.95;74.61;101426.91;6387840;27;20423;-71
2021/10/11 02:27:54;;;;;;;13.63;7.85;;;;;;;11.01;74.20;101412.44;6389141;27;20189;-71
2021/10/11 02:30:58;;;;;;;9.60;7.90;;;;;;;11.07;74.61;101410.75;6388032;27;20209;-71
2021/10/11 02:34:02;;;;;;;12.82;8.25;;;;;;;11.06;74.01;101412.69;6388673;27;20267;-71
2021/10/11 02:37:11;;;;;;;10.82;8.38;;;;;;;11.03;74.14;101410.34;6377621;27;20375;-72
2021/10/11 02:40:15;;;;;;;8.15;7.32;;;;;;;11.10;74.20;101400.28;6381878;27;20401;-72
2021/10/11 02:43:19;;;;;;;14.85;8.13;;;;;;;11.08;73.84;101404.25;6387302;27;20226;-72
2021/10/11 02:46:23;;;;;;;9.57;7.38;;;;;;;11.10;73.51;101399.44;6388533;27;20182;-71
2021/10/11 02:49:27;;;;;;;11.98;7.97;;;;;;;11.09;74.19;101376.72;6387404;27;20531;-72
2021/10/11 02:52:33;;;;;;;9.27;7.50;;;;;;;11.05;74.58;101380.94;6388836;27;20257;-72
2021/10/11 02:55:37;;;;;;;14.00;7.65;;;;;;;11.06;74.48;101366.25;6388781;27;20188;-71
2021/10/11 02:58:41;;;;;;;10.65;8.40;;;;;;;10.91;75.03;101351.94;6388399;27;20226;-72
2021/10/11 03:01:45;;;;;;;11.50;8.00;;;;;;;11.01;75.13;101352.38;6388545;27;20181;-72
2021/10/11 03:04:50;;;;;;;10.43;8.15;;;;;;;11.05;74.46;101337.25;6388590;27;20209;-72
2021/10/11 03:07:55;;;;;;;15.30;8.25;;;;;;;11.11;74.32;101335.59;6388123;27;20261;-72
2021/10/11 03:10:59;;;;;;;10.88;7.70;;;;;;;11.25;73.98;101335.38;6388418;27;20288;-72
2021/10/11 03:14:03;;;;;;;10.45;8.07;;;;;;;10.97;74.35;101340.16;6386898;28;20264;-72
2021/10/11 03:17:07;;;;;;;8.75;7.55;;;;;;;11.25;73.70;101348.19;6388475;28;20182;-72
2021/10/11 03:20:13;;;;;;;13.10;8.18;;;;;;;11.15;74.39;101342.28;6388398;28;20224;-72
2021/10/11 03:23:19;;;;;;;12.38;8.35;;;;;;;11.07;74.58;101335.16;6386946;28;20526;-71
2021/10/11 03:26:23;;;;;;;11.65;8.70;;;;;;;10.94;75.13;101318.75;6388173;28;20216;-72
2021/10/11 03:29:27;;;;;;;14.23;8.45;;;;;;;11.08;75.75;101303.22;6388315;28;20209;-72
2021/10/11 03:32:32;;;;;;;9.10;7.57;;;;;;;11.08;75.09;101298.59;6390017;27;20182;-72
2021/10/11 03:35:36;;;;;;;10.23;8.27;;;;;;;10.91;76.17;101291.88;6393126;27;20204;-71
2021/10/11 03:38:41;;;;;;;13.25;8.15;;;;;;;10.99;75.96;101288.09;6391858;27;20366;-72
2021/10/11 03:41:46;;;;;;;11.57;8.30;;;;;;;10.88;75.69;101286.00;6392780;27;20256;-71
2021/10/11 03:44:50;;;;;;;13.63;8.88;;;;;;;10.95;75.31;101281.38;6392878;27;20212;-71
2021/10/11 03:47:54;;;;;;;10.93;7.90;;;;;;;10.97;76.59;101269.19;6392941;27;20192;-71
2021/10/11 03:50:58;;;;;;;10.93;7.90;;;;;;;10.89;76.71;101261.19;6393012;27;20236;-71
2021/10/11 03:54:04;;;;;;;12.10;8.30;;;;;;;10.91;76.73;101267.31;6391571;27;20204;-72
2021/10/11 03:57:08;;;;;;;16.55;8.07;;;;;;;10.93;78.18;101265.22;6392578;27;20303;-72
2021/10/11 04:00:12;;;;;;;12.73;8.40;;;;;;;10.94;79.64;101258.69;6391466;27;20185;-71
2021/10/11 04:03:18;;;;;;;12.93;8.43;;;;;;;11.03;79.04;101251.97;6392500;27;20201;-71
2021/10/11 04:06:23;;;;;;;12.27;8.52;;;;;;;10.92;80.49;101238.94;6391721;27;20226;-72
2021/10/11 04:09:29;;;;;;;10.52;7.78;;;;;;;10.90;80.99;101251.97;6392343;27;20284;-72
2021/10/11 04:12:35;;;;;;;9.85;7.55;;;;;;;10.89;81.76;101231.16;6391584;27;20181;-72
2021/10/11 04:15:39;;;;;;;9.50;8.18;;;;;;;10.88;81.24;101232.25;6391120;27;20486;-72
2021/10/11 04:18:44;;;;;;;10.77;8.10;;;;;;;10.73;81.87;101217.94;6391213;27;20229;-71
2021/10/11 04:21:48;;;;;;;9.70;8.65;;;;;;;10.81;81.91;101220.44;6392321;27;20217;-72
2021/10/11 04:24:53;;;;;;;13.63;8.30;;;;;;;10.87;83.25;101216.06;6391019;27;20501;-72
2021/10/11 04:27:57;;;;;;;12.45;8.23;;;;;;;10.94;83.59;101225.09;6391308;27;20182;-71
2021/10/11 04:31:01;;;;;;;12.13;8.45;;;;;;;10.61;84.17;101219.59;6390687;27;20216;-72
2021/10/11 04:34:05;;;;;;;13.98;9.77;;;;;;;10.61;86.69;101220.44;6390742;27;20371;-72
2021/10/11 04:37:12;;;;;;;16.70;8.77;;;;;;;10.68;88.17;101215.00;6390812;27;20387;-72
2021/10/11 04:40:18;;;;;;;13.55;8.77;;;;;;;10.61;87.04;101205.97;6391063;27;20261;-72
2021/10/11 04:43:22;;;;;;;13.50;8.82;;;;;;;10.53;87.12;101212.44;6390501;27;20306;-72
2021/10/11 04:46:26;;;;;;;13.25;8.52;;;;;;;10.53;87.46;101207.00;6390619;27;20181;-71
2021/10/11 04:49:30;;;;;;;9.02;7.78;;;;;;;10.55;88.32;101206.81;6390219;27;20473;-72
2021/10/11 04:52:34;;;;;;;14.52;8.70;;;;;;;10.67;87.50;101207.88;6391502;27;20227;-72
2021/10/11 04:55:40;;;;;;;13.13;8.95;;;;;;;10.84;86.59;101214.56;6391317;27;20181;-72
2021/10/11 04:58:44;;;;;;;11.40;8.63;;;;;;;10.76;86.45;101208.50;6390359;27;20253;-73
2021/10/11 05:01:48;;;;;;;13.98;8.45;;;;;;;10.79;86.14;101206.19;6391004;27;20217;-73
2021/10/11 05:04:52;;;;;;;10.18;8.38;;;;;;;10.83;86.72;101202.00;6390897;27;20219;-72
2021/10/11 05:07:56;;;;;;;12.93;9.00;;;;;;;10.77;87.83;101208.28;6391357;27;20248;-73
2021/10/11 05:11:01;;;;;;;9.70;8.00;;;;;;;10.82;86.95;101194.84;6390248;27;20284;-73
2021/10/11 05:14:06;;;;;;;11.85;8.38;;;;;;;10.79;86.33;101195.25;6390855;27;20181;-72
2021/10/11 05:17:11;;;;;;;12.93;9.10;;;;;;;10.62;88.05;101188.53;6390601;27;20186;-71
2021/10/11 05:20:16;;;;;;;11.27;8.63;;;;;;;10.65;88.87;101185.41;6389970;27;20185;-72
2021/10/11 05:23:20;;;;;;;12.70;8.32;;;;;;;10.78;87.89;101182.69;6389463;27;20410;-71
2021/10/11 05:26:26;;;;;;;10.00;8.82;;;;;;;10.79;87.43;101164.41;6390520;27;20181;-72
2021/10/11 05:29:30;;;;;;;12.45;9.18;;;;;;;10.77;87.36;101159.16;6390077;27;20252;-73
2021/10/11 05:32:36;;;;;;;11.15;9.18;;;;;;;10.67;88.21;101164.19;6390667;27;20210;-72
2021/10/11 05:35:40;;;;;;;10.95;8.95;;;;;;;10.63;88.44;101162.94;6389257;27;20213;-73
2021/10/11 05:38:44;;;;;;;14.40;8.98;;;;;;;10.55;88.96;101160.44;6389819;27;20205;-73
2021/10/11 05:41:50;;;;;;;12.07;9.15;;;;;;;10.66;89.63;101151.59;6390354;27;20248;-72
2021/10/11 05:44:54;;;;;;;15.02;8.75;;;;;;;10.74;89.76;101154.13;6389749;27;20232;-72
2021/10/11 05:47:58;;;;;;;12.60;8.75;;;;;;;10.67;88.34;101166.94;6389892;27;20213;-73
2021/10/11 05:51:02;;;;;;;12.65;8.43;;;;;;;10.68;88.14;101144.06;6388496;27;20426;-73
2021/10/11 05:54:07;;;;;;;13.52;8.82;;;;;;;10.71;89.17;101138.16;6388707;27;20249;-72
2021/10/11 05:57:12;;;;;;;11.48;8.77;;;;;;;10.73;88.81;101144.28;6389238;27;20181;-72
2021/10/11 06:00:17;;;;;;;12.82;8.77;;;;;;;10.71;89.75;101142.81;6389855;27;20182;-73
2021/10/11 06:03:21;;;;;;;14.45;8.43;;;;;;;10.81;88.36;101138.56;6388440;27;20203;-73
2021/10/11 06:06:25;;;;;;;10.73;8.70;;;;;;;10.82;88.46;101134.81;6388327;27;20487;-73
2021/10/11 06:09:29;;;;;;;9.70;8.38;;;;;;;10.70;89.25;101136.50;6389805;27;20291;-72
2021/10/11 06:12:34;;;;;;;11.82;8.52;;;;;;;10.93;87.03;101146.97;6389461;27;20254;-73
2021/10/11 06:15:39;;;;;;;12.23;9.05;;;;;;;10.77;89.03;101134.59;6389107;27;20257;-73
2021/10/11 06:18:43;;;;;;;11.15;8.40;;;;;;;10.76;87.96;101135.63;6388424;27;20265;-73
2021/10/11 06:21:47;;;;;;;12.27;8.85;;;;;;;10.76;88.25;101137.56;6389315;27;20186;-73
2021/10/11 06:24:51;;;;;;;13.07;8.38;;;;;;;10.86;88.47;101138.78;6388884;27;20213;-72
2021/10/11 06:27:57;;;;;;;11.95;8.88;;;;;;;10.82;87.71;101137.53;6387853;27;20492;-71
2021/10/11 06:31:01;;;;;;;9.98;8.50;;;;;;;10.79;88.55;101129.75;6388698;27;20291;-72
2021/10/11 06:34:05;;;;;;;15.38;8.50;;;;;;;10.86;88.18;101130.59;6388749;27;20182;-72
2021/10/11 06:37:10;;;;;;;12.68;8.38;;;;;;;10.84;90.03;101127.22;6377926;27;20199;-72
2021/10/11 06:40:15;;;;;;;10.35;8.50;;;;;;;10.96;88.70;101125.56;6382277;27;20233;-73
2021/10/11 06:43:35;;;;;;;9.85;7.80;;;;;;;10.94;89.67;101127.63;6388962;27;20316;-72
2021/10/11 06:46:39;;;;;;;12.68;7.95;;;;;;;10.92;88.03;101139.81;6388753;27;20189;-73
2021/10/11 06:49:46;;;;;;;8.57;7.35;;;;;;;10.89;88.73;101123.88;6388478;27;20257;-72
2021/10/11 06:52:50;;;;;;;12.77;8.18;;;;;;;10.92;89.61;101107.91;6387301;27;20280;-72
2021/10/11 06:55:54;;;;;;;11.00;8.25;;;;;;;10.97;88.64;101116.28;6388603;27;20216;-72
2021/10/11 06:59:00;;;;;;;10.20;8.00;;;;;;;10.94;89.67;101122.19;6387301;27;20392;-72
2021/10/11 07:02:04;;;;;;;9.23;7.47;;;;;;;10.94;88.60;101116.72;6387177;27;20473;-72
2021/10/11 07:05:15;;;;;;;11.95;7.72;;;;;;;10.82;89.92;101118.44;6388069;27;20182;-73
2021/10/11 07:08:19;;;;;;;10.73;6.90;;;;;;;10.95;89.82;101120.28;6387234;27;20189;-72
2021/10/11 07:11:23;;;;;;;10.63;7.22;;;;;;;10.98;88.76;101106.22;6387919;27;20322;-72
2021/10/11 07:14:29;;;;;;;8.55;7.28;;;;;;;10.86;90.82;101114.19;6387098;28;20384;-72
2021/10/11 07:17:33;;;;;;;9.40;7.85;;;;;;;11.01;90.23;101112.09;6387433;28;20248;-73
2021/10/11 07:20:41;;;;;;;9.05;7.15;;;;;;;11.08;88.02;101112.09;6386961;28;20197;-73
2021/10/11 07:23:45;;;;;;;9.45;7.45;;;;;;;11.14;87.17;101101.16;6388288;28;20257;-72
2021/10/11 07:26:49;;;;;;;9.13;6.70;;;;;;;11.06;88.71;101103.28;6387468;28;20252;-73
2021/10/11 07:29:55;;;;;;;11.60;6.93;;;;;;;11.20;87.05;101094.81;6388367;28;20217;-73
2021/10/11 07:33:00;;;;;;;12.15;7.53;;;;;;;11.05;89.52;101094.22;6387789;28;20205;-72
2021/10/11 07:36:05;;;;;;;9.50;7.53;;;;;;;11.14;87.07;101095.69;6403918;27;20198;-72
2021/10/11 07:39:09;;;;;;;11.45;7.45;;;;;;;11.08;87.06;101096.53;6388145;28;20204;-72
2021/10/11 07:42:13;;;;;;;8.52;6.80;;;;;;;11.03;88.34;101092.78;6387078;28;20246;-73
2021/10/11 07:45:18;;;;;;;16.40;6.78;;;;;;;11.09;87.37;101090.00;6388065;28;20287;-73
2021/10/11 07:48:23;;;;;;;11.65;6.15;;;;;;;11.05;87.13;101086.03;6386646;28;20470;-73
2021/10/11 07:51:27;;;;;;;9.68;6.63;;;;;;;11.22;87.37;101079.03;6387584;28;20188;-73
2021/10/11 07:54:31;;;;;;;9.35;6.68;;;;;;;11.23;86.69;101083.47;6388065;28;20182;-73
2021/10/11 07:57:35;;;;;;;9.60;6.43;;;;;;;11.33;87.16;101078.38;6388004;28;20196;-73
2021/10/11 08:00:41;;;;;;;7.20;6.47;;;;;;;11.26;86.85;101080.31;6387802;28;20182;-73
2021/10/11 08:03:46;;;;;;;8.98;6.93;;;;;;;11.23;85.71;101075.28;6387470;28;20185;-73
2021/10/11 08:06:51;;;;;;;8.73;6.60;;;;;;;11.27;86.04;101084.69;6386909;28;20226;-72
2021/10/11 08:09:55;;;;;;;8.40;6.55;;;;;;;11.32;85.67;101081.34;6387753;28;20189;-72
2021/10/11 08:12:59;;;;;;;9.88;6.25;;;;;;;11.25;85.54;101086.81;6386439;28;20543;-72
2021/10/11 08:16:06;;;;;;;14.45;6.20;;;;;;;11.33;86.69;101078.38;6386397;28;20181;-72
2021/10/11 08:19:11;;;;;;;9.13;5.78;;;;;;;11.25;85.06;101070.44;6388922;27;20541;-72
2021/10/11 08:22:19;;;;;;;6.82;6.13;;;;;;;11.21;85.61;101063.72;6392314;27;20217;-72
2021/10/11 08:25:23;;;;;;;10.23;5.90;;;;;;;11.21;85.33;101066.47;6392121;27;20213;-72
2021/10/11 08:28:27;;;;;;;12.85;5.85;;;;;;;11.25;85.10;101062.22;6391848;27;20182;-72
2021/10/11 08:31:33;;;;;;;8.38;5.60;;;;;;;11.36;84.87;101057.16;6391236;27;20227;-72
2021/10/11 08:34:37;;;;;;;7.38;5.65;;;;;;;11.31;84.53;101063.28;6391731;27;20242;-72
2021/10/11 08:37:41;;;;;;;6.47;5.53;;;;;;;11.31;84.68;101057.81;6390539;27;20251;-72
2021/10/11 08:40:48;;;;;;;8.05;6.07;;;;;;;11.29;85.16;101065.38;6391616;27;20305;-72
2021/10/11 08:43:52;;;;;;;6.93;5.45;;;;;;;11.36;84.72;101054.41;6391847;27;20193;-72
2021/10/11 08:46:59;;;;;;;6.53;5.70;;;;;;;11.48;83.77;101041.78;6391400;27;20192;-72
2021/10/11 08:50:05;;;;;;;8.65;5.38;;;;;;;11.46;83.87;101043.84;6390155;27;20248;-72
2021/10/11 08:53:13;;;;;;;6.13;5.20;;;;;;;11.52;83.45;101037.53;6389978;27;20254;-72
2021/10/11 08:56:18;;;;;;;6.40;5.40;;;;;;;11.57;82.97;101037.72;6390056;27;20181;-73
2021/10/11 08:59:29;;;;;;;7.07;5.43;;;;;;;11.46;85.02;101027.47;6390207;27;20347;-71
2021/10/11 09:02:34;;;;;;;7.85;5.50;;;;;;;11.47;85.25;101023.69;6390990;27;20248;-72
2021/10/11 09:05:41;;;;;;;10.63;5.72;;;;;;;11.65;83.04;101026.53;6390767;27;20261;-71
2021/10/11 09:08:45;;;;;;;8.95;5.97;;;;;;;11.60;83.95;101024.47;6389829;27;20185;-72
2021/10/11 09:11:52;;;;;;;9.38;5.88;;;;;;;11.57;85.03;101040.44;6390806;27;20220;-72
2021/10/11 09:15:08;;;;;;;8.05;5.03;;;;;;;11.48;83.56;101036.31;6389640;27;20505;-72
2021/10/11 09:18:27;;;;;;;9.02;5.30;;;;;;;11.49;83.22;101037.97;6389607;27;20181;-74
2021/10/11 09:21:32;;;;;;;8.70;5.25;;;;;;;11.35;84.01;101025.44;6389586;27;20181;-71
2021/10/11 09:24:36;;;;;;;10.10;4.57;;;;;;;11.47;83.90;101020.97;6390177;27;20185;-71
2021/10/11 09:27:49;;;;;;;7.72;5.10;;;;;;;11.54;83.46;101011.66;6389449;27;20461;-71
2021/10/11 09:30:54;;;;;;;6.10;4.47;;;;;;;11.59;83.28;101016.47;6388307;27;20182;-72
2021/10/11 09:34:01;;;;;;;6.82;4.88;;;;;;;11.58;83.49;101017.53;6390524;27;20243;-72
2021/10/11 09:37:07;;;;;;;12.63;4.32;;;;;;;11.61;83.58;101008.88;6381306;27;20199;-72
2021/10/11 09:40:12;;;;;;;7.30;4.80;;;;;;;11.72;82.50;101000.03;6382819;27;20528;-71
2021/10/11 09:43:18;;;;;;;14.05;4.30;;;;;;;11.84;82.19;100995.50;6390280;27;20221;-73
2021/10/11 09:46:24;;;;;;;15.15;4.88;;;;;;;11.83;82.12;100997.44;6389936;27;20182;-73
2021/10/11 09:49:30;;;;;;;6.35;4.10;;;;;;;11.91;80.66;100999.06;6389870;27;20205;-72
2021/10/11 09:52:35;;;;;;;5.65;3.60;;;;;;;11.88;80.23;100988.56;6388644;27;20348;-72
2021/10/11 09:55:41;;;;;;;5.90;3.42;;;;;;;11.81;80.75;100996.78;6389833;27;20181;-70
2021/10/11 09:58:45;;;;;;;8.32;4.05;;;;;;;11.93;80.76;100996.94;6389148;27;20187;-72
2021/10/11 10:01:49;;;;;;;3.90;3.47;;;;;;;12.03;79.53;100989.06;6388594;27;20223;-72
2021/10/11 10:05:00;;;;;;;6.57;3.72;;;;;;;12.00;80.22;100986.78;6388411;27;20356;-72
2021/10/11 10:08:09;;;;;;;11.07;3.95;;;;;;;12.06;80.98;100974.97;6389389;27;20182;-72
2021/10/11 10:11:14;;;;;;;9.77;3.63;;;;;;;12.15;79.17;100976.34;6389565;27;20222;-72
2021/10/11 10:14:20;;;;;;;4.25;3.38;;;;;;;12.13;79.88;100959.31;6388184;27;20288;-72
2021/10/11 10:17:32;;;;;;;6.43;3.17;;;;;;;12.22;77.72;100962.63;6389413;27;20182;-72
2021/10/11 10:20:49;;;;;;;5.68;3.80;;;;;;;12.29;78.89;100964.22;6389150;27;20259;-72
2021/10/11 10:23:57;;;;;;;4.68;3.40;;;;;;;12.45;76.58;100974.56;6389207;27;20234;-72
2021/10/11 10:27:05;;;;;;;7.30;3.22;;;;;;;12.51;76.54;100962.72;6388042;27;20433;-72
2021/10/11 10:30:18;;;;;;;7.35;3.30;;;;;;;12.56;76.39;100954.66;6387917;27;20369;-72
2021/10/11 10:33:33;;;;;;;8.00;3.47;;;;;;;12.30;75.59;100960.41;6389158;27;20241;-73
2021/10/11 10:36:42;;;;;;;9.40;3.30;;;;;;;12.35;75.87;100941.41;6388657;27;20181;-72
2021/10/11 10:39:49;;;;;;;9.77;3.60;;;;;;;12.28;76.71;100950.75;6388353;27;20181;-73
2021/10/11 10:43:04;;;;;;;6.00;3.03;;;;;;;12.26;76.63;100952.88;6388624;27;20182;-72
2021/10/11 10:46:10;;;;;;;3.47;3.17;;;;;;;12.37;75.72;100944.78;6388466;27;20249;-73
2021/10/11 10:49:14;;;;;;;5.30;3.40;;;;;;;12.22;76.09;100947.03;6388784;27;20200;-72
2021/10/11 10:52:21;;;;;;;4.10;2.75;;;;;;;12.33;77.30;100939.97;6387812;27;20182;-72
2021/10/11 10:55:26;;;;;;;3.38;3.08;;;;;;;12.40;76.24;100959.91;6387497;27;20210;-72
2021/10/11 10:58:30;;;;;;;4.57;2.80;;;;;;;12.45;75.21;100952.69;6388407;27;20325;-72
2021/10/11 11:01:34;;;;;;;6.10;2.65;;;;;;;12.35;75.29;100941.41;6388514;27;20182;-72
2021/10/11 11:04:39;;;;;;;7.88;2.70;;;;;;;12.37;76.68;100943.94;6388126;27;20228;-73
2021/10/11 11:07:47;;;;;;;4.38;2.42;;;;;;;12.38;75.12;100940.97;6388422;27;20181;-72
2021/10/11 11:10:51;;;;;;;11.93;2.83;;;;;;;12.49;74.17;100926.56;6388068;27;20192;-72
2021/10/11 11:13:57;;;;;;;7.68;3.22;;;;;;;12.42;74.77;100931.25;6388176;27;20204;-72
2021/10/11 11:17:01;;;;;;;7.47;2.50;;;;;;;12.50;74.78;100928.22;6388489;27;20186;-72
2021/10/11 11:20:13;;;;;;;5.28;2.80;;;;;;;12.44;75.50;100940.06;6387069;28;20204;-72
2021/10/11 11:23:21;;;;;;;4.82;2.90;;;;;;;12.55;75.70;100925.66;6387584;28;20185;-72
2021/10/11 11:26:25;;;;;;;4.07;3.00;;;;;;;12.41;74.87;100929.56;6388256;28;20213;-72
2021/10/11 11:29:31;;;;;;;6.32;2.67;;;;;;;12.49;74.91;100923.81;6387870;28;20246;-73
2021/10/11 11:32:39;;;;;;;8.65;3.08;;;;;;;12.50;76.81;100922.75;6388212;28;20249;-73
2021/10/11 11:35:44;;;;;;;5.70;3.08;;;;;;;12.26;75.45;100909.97;6388190;28;20205;-72
2021/10/11 11:38:50;;;;;;;4.22;2.83;;;;;;;12.50;74.90;100911.81;6386966;28;20234;-72
2021/10/11 11:41:55;;;;;;;4.70;2.45;;;;;;;12.41;75.21;100912.31;6387044;28;20542;-72
2021/10/11 11:45:01;;;;;;;3.00;2.72;;;;;;;12.54;75.04;100913.00;6386636;28;20435;-72
2021/10/11 11:48:08;;;;;;;5.75;2.45;;;;;;;12.46;74.36;100901.53;6387859;28;20227;-72
2021/10/11 11:51:14;;;;;;;6.38;2.60;;;;;;;12.61;73.70;100895.69;6386514;28;20249;-73
2021/10/11 11:54:19;;;;;;;2.70;2.22;;;;;;;12.63;73.09;100888.09;6389726;27;20376;-72
2021/10/11 11:57:23;;;;;;;12.77;3.08;;;;;;;12.67;73.92;100878.34;6392711;27;20244;-72
2021/10/11 12:00:34;;;;;;;4.30;2.28;;;;;;;12.76;73.52;100883.25;6408014;27;20197;-73
2021/10/11 12:03:45;;;;;;;3.13;2.13;;;;;;;12.65;74.41;100875.00;6392691;27;20181;-72
2021/10/11 12:06:49;;;;;;;5.00;2.60;;;;;;;12.67;74.53;100879.19;6391458;27;20234;-72
2021/10/11 12:09:55;;;;;;;10.70;2.38;;;;;;;12.71;73.14;100874.91;6391322;27;20466;-72
2021/10/11 12:13:01;;;;;;;2.80;2.60;;;;;;;12.72;73.67;100881.22;6392235;27;20212;-72
2021/10/11 12:16:07;;;;;;;3.70;2.30;;;;;;;12.77;72.80;100873.16;6392482;27;20209;-72
2021/10/11 12:19:12;;;;;;;6.00;2.28;;;;;;;12.88;73.05;100864.16;6392143;27;20181;-73
2021/10/11 12:22:16;;;;;;;4.05;2.33;;;;;;;12.95;72.93;100864.91;6391509;27;20182;-73
2021/10/11 12:25:32;;;;;;;3.47;2.35;;;;;;;12.95;73.28;100870.38;6392376;27;20185;-72
2021/10/11 12:28:36;;;;;;;3.35;2.08;;;;;;;12.91;73.66;100875.50;6390926;27;20488;-73
2021/10/11 12:31:40;;;;;;;4.97;2.30;;;;;;;12.97;72.77;100868.25;6391753;27;20265;-72
2021/10/11 12:34:46;;;;;;;5.63;2.05;;;;;;;12.94;72.10;100866.00;6392014;27;20231;-73
2021/10/11 12:37:50;;;;;;;7.00;2.30;;;;;;;12.91;73.85;100860.97;6392196;27;20197;-72
2021/10/11 12:41:08;;;;;;;4.75;2.08;;;;;;;12.93;72.98;100856.09;6391410;27;20264;-73
2021/10/11 12:44:18;;;;;;;3.17;2.30;;;;;;;13.04;72.68;100858.06;6390627;27;20474;-72
2021/10/11 12:47:23;;;;;;;3.22;2.47;;;;;;;13.05;73.71;100859.69;6390757;27;20213;-73
2021/10/11 12:50:28;;;;;;;2.58;2.22;;;;;;;13.02;72.89;100854.69;6391500;27;20226;-73
2021/10/11 12:53:33;;;;;;;4.35;2.38;;;;;;;12.86;73.67;100855.34;6391327;27;20181;-72
2021/10/11 12:56:42;;;;;;;4.95;2.40;;;;;;;12.78;74.29;100852.94;6390022;27;20209;-72
2021/10/11 12:59:46;;;;;;;5.90;2.58;;;;;;;12.90;73.53;100851.06;6390929;27;20181;-72
2021/10/11 13:02:50;;;;;;;6.50;2.10;;;;;;;12.93;72.95;100840.50;6390019;27;20261;-72
2021/10/11 13:05:57;;;;;;;2.80;2.40;;;;;;;13.02;72.37;100841.00;6389708;27;20189;-72
2021/10/11 13:09:03;;;;;;;3.30;2.50;;;;;;;13.02;72.97;100832.78;6390850;27;20213;-72
2021/10/11 13:12:12;;;;;;;3.05;2.42;;;;;;;13.07;74.95;100835.72;6389773;27;20593;-73
2021/10/11 13:15:16;;;;;;;9.77;2.35;;;;;;;13.15;73.29;100827.13;6390851;27;20208;-73
2021/10/11 13:18:20;;;;;;;11.00;2.33;;;;;;;13.07;71.96;100824.75;6389697;27;20351;-73
2021/10/11 13:21:24;;;;;;;2.95;2.28;;;;;;;13.17;71.93;100828.56;6389564;27;20496;-73
2021/10/11 13:24:28;;;;;;;4.22;1.83;;;;;;;13.07;71.59;100824.75;6389358;27;20566;-71
2021/10/11 13:27:37;;;;;;;3.13;1.92;;;;;;;13.13;72.32;100824.63;6389262;27;20186;-73
2021/10/11 14:28:22;;;;;;;4.70;2.53;;;;;;;12.56;78.40;100785.00;6387660;27;20401;-71
2021/10/11 14:31:29;;;;;;;3.85;2.40;;;;;;;12.56;78.42;100779.50;6388410;27;20188;-71
2021/10/11 15:51:27;;;;;;;3.05;2.38;;;;;;;12.57;78.31;100780.34;6388954;27;20213;-72
2021/10/11 15:59:19;;;;;;;3.33;1.83;;;;;;;11.80;78.59;100772.88;6367327;28;20187;-71
2021/10/11 16:02:34;;;;;;;4.45;1.63;;;;;;;11.80;78.99;100764.69;6366920;28;20182;-71
2021/10/11 16:05:41;;;;;;;3.08;1.98;;;;;;;11.72;80.34;100767.69;6366866;28;20189;-72
2021/10/11 16:08:45;;;;;;;8.45;1.90;;;;;;;11.79;80.24;100776.66;6366764;28;20190;-71
2021/10/11 16:11:52;;;;;;;6.78;1.90;;;;;;;11.81;80.77;100769.09;6365874;28;20204;-72
2021/10/11 16:14:58;;;;;;;3.25;1.65;;;;;;;11.81;79.86;100777.31;6366896;28;20182;-73
2021/10/11 16:18:22;;;;;;;2.25;1.80;;;;;;;11.78;80.48;100780.47;6366927;28;20218;-73
2021/10/11 16:21:26;;;;;;;7.85;1.85;;;;;;;11.81;81.38;100775.38;6366846;28;20182;-73
2021/10/11 16:24:31;;;;;;;8.65;2.03;;;;;;;11.80;81.11;100779.19;6366793;28;20258;-73
2021/10/11 16:27:35;;;;;;;2.88;1.80;;;;;;;11.79;82.43;100779.41;6365557;27;20389;-72
2021/10/11 16:30:41;;;;;;;7.32;2.63;;;;;;;11.79;81.38;100782.13;6366507;28;20250;-72
2021/10/11 16:33:47;;;;;;;1.95;1.75;;;;;;;11.80;81.31;100772.88;6366367;28;20244;-72
2021/10/11 16:36:51;;;;;;;5.50;2.10;;;;;;;11.78;82.09;100788.69;6365030;28;20210;-73